sensor_id;sensor_type;location;lat;lon;timestamp;P1;durP1;ratioP1;P2;durP2;ratioP2
62790;SDS011;48830;53.426;10.300;2023-01-31T00:01:10;14.27;;;3.37;;
62790;SDS011;48830;53.426;10.300;2023-01-31T00:03:39;25.90;;;3.73;;
62790;SDS011;48830;53.426;10.300;2023-01-31T00:06:12;10.23;;;2.73;;
62790;SDS011;48830;53.426;10.300;2023-01-31T00:08:39;13.30;;;2.53;;
62790;SDS011;48830;53.426;10.300;2023-01-31T00:11:04;16.23;;;3.00;;
62790;SDS011;48830;53.426;10.300;2023-01-31T00:13:30;13.83;;;3.00;;
62790;SDS011;48830;53.426;10.300;2023-01-31T00:15:56;15.33;;;2.80;;
62790;SDS011;48830;53.426;10.300;2023-01-31T00:18:22;20.93;;;3.37;;
62790;SDS011;48830;53.426;10.300;2023-01-31T00:20:47;12.73;;;2.80;;
62790;SDS011;48830;53.426;10.300;2023-01-31T00:23:13;12.97;;;2.73;;
62790;SDS011;48830;53.426;10.300;2023-01-31T00:25:39;11.87;;;2.87;;
62790;SDS011;48830;53.426;10.300;2023-01-31T00:28:04;15.13;;;2.90;;
62790;SDS011;48830;53.426;10.300;2023-01-31T00:30:30;10.67;;;2.80;;
62790;SDS011;48830;53.426;10.300;2023-01-31T00:32:55;13.47;;;3.03;;
62790;SDS011;48830;53.426;10.300;2023-01-31T00:35:23;15.83;;;3.57;;
62790;SDS011;48830;53.426;10.300;2023-01-31T00:37:48;11.37;;;2.50;;
62790;SDS011;48830;53.426;10.300;2023-01-31T00:40:14;12.70;;;2.87;;
62790;SDS011;48830;53.426;10.300;2023-01-31T00:42:39;18.63;;;3.60;;
62790;SDS011;48830;53.426;10.300;2023-01-31T00:45:05;17.40;;;2.50;;
62790;SDS011;48830;53.426;10.300;2023-01-31T00:47:31;13.20;;;2.90;;
62790;SDS011;48830;53.426;10.300;2023-01-31T00:49:56;16.17;;;4.17;;
62790;SDS011;48830;53.426;10.300;2023-01-31T00:52:22;13.57;;;3.17;;
62790;SDS011;48830;53.426;10.300;2023-01-31T00:54:47;16.90;;;2.90;;
62790;SDS011;48830;53.426;10.300;2023-01-31T00:57:13;18.77;;;3.97;;
62790;SDS011;48830;53.426;10.300;2023-01-31T00:59:38;17.10;;;3.13;;
62790;SDS011;48830;53.426;10.300;2023-01-31T01:02:04;13.73;;;2.40;;
62790;SDS011;48830;53.426;10.300;2023-01-31T01:04:29;12.30;;;2.73;;
62790;SDS011;48830;53.426;10.300;2023-01-31T01:06:57;13.47;;;2.60;;
62790;SDS011;48830;53.426;10.300;2023-01-31T01:09:22;17.67;;;3.67;;
62790;SDS011;48830;53.426;10.300;2023-01-31T01:11:48;13.40;;;3.23;;
62790;SDS011;48830;53.426;10.300;2023-01-31T01:14:13;15.90;;;3.47;;
62790;SDS011;48830;53.426;10.300;2023-01-31T01:16:39;15.10;;;3.00;;
62790;SDS011;48830;53.426;10.300;2023-01-31T01:19:11;14.73;;;3.23;;
62790;SDS011;48830;53.426;10.300;2023-01-31T01:21:39;14.07;;;3.30;;
62790;SDS011;48830;53.426;10.300;2023-01-31T01:24:07;12.17;;;2.83;;
62790;SDS011;48830;53.426;10.300;2023-01-31T01:26:37;20.00;;;3.57;;
62790;SDS011;48830;53.426;10.300;2023-01-31T01:29:03;17.03;;;3.20;;
62790;SDS011;48830;53.426;10.300;2023-01-31T01:31:29;17.70;;;2.67;;
62790;SDS011;48830;53.426;10.300;2023-01-31T01:33:55;17.97;;;3.03;;
62790;SDS011;48830;53.426;10.300;2023-01-31T01:36:23;12.83;;;2.77;;
62790;SDS011;48830;53.426;10.300;2023-01-31T01:38:49;19.10;;;3.83;;
62790;SDS011;48830;53.426;10.300;2023-01-31T01:41:15;14.60;;;3.33;;
62790;SDS011;48830;53.426;10.300;2023-01-31T01:43:46;15.27;;;3.30;;
62790;SDS011;48830;53.426;10.300;2023-01-31T01:48:50;16.20;;;3.80;;
62790;SDS011;48830;53.426;10.300;2023-01-31T01:51:21;17.23;;;3.50;;
62790;SDS011;48830;53.426;10.300;2023-01-31T01:53:49;13.00;;;3.13;;
62790;SDS011;48830;53.426;10.300;2023-01-31T01:56:25;15.70;;;3.10;;
62790;SDS011;48830;53.426;10.300;2023-01-31T01:59:00;19.90;;;5.03;;
62790;SDS011;48830;53.426;10.300;2023-01-31T02:01:32;13.30;;;3.20;;
62790;SDS011;48830;53.426;10.300;2023-01-31T02:04:05;13.60;;;2.57;;
62790;SDS011;48830;53.426;10.300;2023-01-31T02:06:33;13.70;;;3.03;;
62790;SDS011;48830;53.426;10.300;2023-01-31T02:08:59;14.73;;;3.87;;
62790;SDS011;48830;53.426;10.300;2023-01-31T02:11:26;16.50;;;2.70;;
62790;SDS011;48830;53.426;10.300;2023-01-31T02:14:06;16.83;;;2.83;;
62790;SDS011;48830;53.426;10.300;2023-01-31T02:16:33;17.73;;;3.87;;
62790;SDS011;48830;53.426;10.300;2023-01-31T02:19:00;17.70;;;3.20;;
62790;SDS011;48830;53.426;10.300;2023-01-31T02:49:24;14.67;;;3.00;;
62790;SDS011;48830;53.426;10.300;2023-01-31T02:58:20;20.00;;;3.10;;
62790;SDS011;48830;53.426;10.300;2023-01-31T03:00:49;11.33;;;2.80;;
62790;SDS011;48830;53.426;10.300;2023-01-31T03:03:29;13.93;;;3.03;;
62790;SDS011;48830;53.426;10.300;2023-01-31T03:08:33;16.57;;;2.87;;
62790;SDS011;48830;53.426;10.300;2023-01-31T03:11:03;11.60;;;3.00;;
62790;SDS011;48830;53.426;10.300;2023-01-31T03:19:15;12.40;;;2.73;;
62790;SDS011;48830;53.426;10.300;2023-01-31T03:21:49;11.53;;;2.67;;
62790;SDS011;48830;53.426;10.300;2023-01-31T03:24:20;9.87;;;2.43;;
62790;SDS011;48830;53.426;10.300;2023-01-31T03:26:51;10.13;;;2.27;;
62790;SDS011;48830;53.426;10.300;2023-01-31T03:29:19;9.13;;;1.83;;
62790;SDS011;48830;53.426;10.300;2023-01-31T03:31:49;9.73;;;2.60;;
62790;SDS011;48830;53.426;10.300;2023-01-31T03:34:20;14.67;;;2.60;;
62790;SDS011;48830;53.426;10.300;2023-01-31T03:37:02;14.03;;;2.37;;
62790;SDS011;48830;53.426;10.300;2023-01-31T03:42:23;9.57;;;2.17;;
62790;SDS011;48830;53.426;10.300;2023-01-31T03:47:55;12.97;;;2.97;;
62790;SDS011;48830;53.426;10.300;2023-01-31T03:50:34;3.63;;;1.57;;
62790;SDS011;48830;53.426;10.300;2023-01-31T03:53:08;8.83;;;2.03;;
62790;SDS011;48830;53.426;10.300;2023-01-31T03:58:41;12.10;;;2.43;;
62790;SDS011;48830;53.426;10.300;2023-01-31T04:01:12;7.30;;;1.90;;
62790;SDS011;48830;53.426;10.300;2023-01-31T04:03:40;13.03;;;2.70;;
62790;SDS011;48830;53.426;10.300;2023-01-31T04:06:10;9.67;;;2.40;;
62790;SDS011;48830;53.426;10.300;2023-01-31T04:08:36;9.97;;;2.80;;
62790;SDS011;48830;53.426;10.300;2023-01-31T04:11:07;15.13;;;3.30;;
62790;SDS011;48830;53.426;10.300;2023-01-31T04:13:36;14.77;;;2.83;;
62790;SDS011;48830;53.426;10.300;2023-01-31T04:16:02;14.63;;;2.53;;
62790;SDS011;48830;53.426;10.300;2023-01-31T04:18:28;14.47;;;2.80;;
62790;SDS011;48830;53.426;10.300;2023-01-31T04:20:54;16.23;;;3.27;;
62790;SDS011;48830;53.426;10.300;2023-01-31T04:23:19;14.50;;;3.10;;
62790;SDS011;48830;53.426;10.300;2023-01-31T04:25:45;14.10;;;3.77;;
62790;SDS011;48830;53.426;10.300;2023-01-31T04:28:10;12.60;;;2.63;;
62790;SDS011;48830;53.426;10.300;2023-01-31T04:30:36;15.37;;;2.60;;
62790;SDS011;48830;53.426;10.300;2023-01-31T04:33:02;14.03;;;3.03;;
62790;SDS011;48830;53.426;10.300;2023-01-31T04:35:27;20.40;;;3.20;;
62790;SDS011;48830;53.426;10.300;2023-01-31T04:37:53;15.70;;;3.20;;
62790;SDS011;48830;53.426;10.300;2023-01-31T04:40:18;17.40;;;3.13;;
62790;SDS011;48830;53.426;10.300;2023-01-31T04:42:44;18.40;;;3.30;;
62790;SDS011;48830;53.426;10.300;2023-01-31T04:45:09;12.90;;;2.90;;
62790;SDS011;48830;53.426;10.300;2023-01-31T04:47:35;15.63;;;3.07;;
62790;SDS011;48830;53.426;10.300;2023-01-31T04:50:01;11.83;;;3.10;;
62790;SDS011;48830;53.426;10.300;2023-01-31T04:52:26;14.03;;;3.47;;
62790;SDS011;48830;53.426;10.300;2023-01-31T04:54:52;15.63;;;3.20;;
62790;SDS011;48830;53.426;10.300;2023-01-31T04:57:17;16.23;;;3.17;;
62790;SDS011;48830;53.426;10.300;2023-01-31T04:59:42;14.80;;;3.03;;
62790;SDS011;48830;53.426;10.300;2023-01-31T05:02:08;13.97;;;3.73;;
62790;SDS011;48830;53.426;10.300;2023-01-31T05:04:33;13.80;;;2.90;;
62790;SDS011;48830;53.426;10.300;2023-01-31T05:06:59;13.97;;;3.40;;
62790;SDS011;48830;53.426;10.300;2023-01-31T05:09:24;13.73;;;2.83;;
62790;SDS011;48830;53.426;10.300;2023-01-31T05:11:50;14.53;;;2.83;;
62790;SDS011;48830;53.426;10.300;2023-01-31T05:14:16;13.63;;;2.93;;
62790;SDS011;48830;53.426;10.300;2023-01-31T05:16:42;12.67;;;2.63;;
62790;SDS011;48830;53.426;10.300;2023-01-31T05:19:11;11.57;;;2.70;;
62790;SDS011;48830;53.426;10.300;2023-01-31T05:21:39;21.43;;;3.10;;
62790;SDS011;48830;53.426;10.300;2023-01-31T05:24:22;15.93;;;2.93;;
62790;SDS011;48830;53.426;10.300;2023-01-31T05:26:48;16.50;;;3.37;;
62790;SDS011;48830;53.426;10.300;2023-01-31T05:29:17;17.27;;;3.00;;
62790;SDS011;48830;53.426;10.300;2023-01-31T05:31:43;12.27;;;2.93;;
62790;SDS011;48830;53.426;10.300;2023-01-31T05:34:09;24.83;;;3.17;;
62790;SDS011;48830;53.426;10.300;2023-01-31T05:36:35;17.60;;;3.23;;
62790;SDS011;48830;53.426;10.300;2023-01-31T05:39:01;14.00;;;2.93;;
62790;SDS011;48830;53.426;10.300;2023-01-31T05:41:26;19.67;;;3.50;;
62790;SDS011;48830;53.426;10.300;2023-01-31T05:43:52;15.53;;;3.07;;
62790;SDS011;48830;53.426;10.300;2023-01-31T05:46:17;15.30;;;3.33;;
62790;SDS011;48830;53.426;10.300;2023-01-31T05:48:43;15.77;;;3.30;;
62790;SDS011;48830;53.426;10.300;2023-01-31T05:51:08;16.17;;;3.67;;
62790;SDS011;48830;53.426;10.300;2023-01-31T05:53:34;23.33;;;4.20;;
62790;SDS011;48830;53.426;10.300;2023-01-31T05:55:59;11.40;;;2.83;;
62790;SDS011;48830;53.426;10.300;2023-01-31T05:58:24;20.50;;;3.53;;
62790;SDS011;48830;53.426;10.300;2023-01-31T06:00:53;17.57;;;3.20;;
62790;SDS011;48830;53.426;10.300;2023-01-31T06:03:20;17.60;;;3.60;;
62790;SDS011;48830;53.426;10.300;2023-01-31T06:05:45;17.83;;;3.30;;
62790;SDS011;48830;53.426;10.300;2023-01-31T06:08:11;17.57;;;3.37;;
62790;SDS011;48830;53.426;10.300;2023-01-31T06:10:38;18.17;;;4.43;;
62790;SDS011;48830;53.426;10.300;2023-01-31T06:13:03;23.07;;;4.40;;
62790;SDS011;48830;53.426;10.300;2023-01-31T06:15:31;20.03;;;3.70;;
62790;SDS011;48830;53.426;10.300;2023-01-31T06:17:57;20.47;;;3.80;;
62790;SDS011;48830;53.426;10.300;2023-01-31T06:20:22;27.73;;;3.33;;
62790;SDS011;48830;53.426;10.300;2023-01-31T06:22:48;20.33;;;3.70;;
62790;SDS011;48830;53.426;10.300;2023-01-31T06:25:14;19.23;;;3.33;;
62790;SDS011;48830;53.426;10.300;2023-01-31T06:27:39;18.97;;;4.30;;
62790;SDS011;48830;53.426;10.300;2023-01-31T06:30:05;13.60;;;3.37;;
62790;SDS011;48830;53.426;10.300;2023-01-31T06:32:31;15.80;;;3.23;;
62790;SDS011;48830;53.426;10.300;2023-01-31T06:34:57;17.40;;;3.50;;
62790;SDS011;48830;53.426;10.300;2023-01-31T06:37:22;23.43;;;4.13;;
62790;SDS011;48830;53.426;10.300;2023-01-31T06:39:48;18.07;;;3.53;;
62790;SDS011;48830;53.426;10.300;2023-01-31T06:42:13;15.00;;;3.63;;
62790;SDS011;48830;53.426;10.300;2023-01-31T06:44:38;13.97;;;2.90;;
62790;SDS011;48830;53.426;10.300;2023-01-31T06:47:04;13.40;;;3.27;;
62790;SDS011;48830;53.426;10.300;2023-01-31T06:49:29;18.27;;;2.90;;
62790;SDS011;48830;53.426;10.300;2023-01-31T06:51:55;18.37;;;3.80;;
62790;SDS011;48830;53.426;10.300;2023-01-31T06:54:21;19.83;;;3.57;;
62790;SDS011;48830;53.426;10.300;2023-01-31T06:56:46;11.60;;;3.07;;
62790;SDS011;48830;53.426;10.300;2023-01-31T06:59:12;17.30;;;3.40;;
62790;SDS011;48830;53.426;10.300;2023-01-31T07:01:37;14.80;;;3.03;;
62790;SDS011;48830;53.426;10.300;2023-01-31T07:04:03;11.80;;;3.07;;
62790;SDS011;48830;53.426;10.300;2023-01-31T07:06:28;21.13;;;3.53;;
62790;SDS011;48830;53.426;10.300;2023-01-31T07:08:54;19.20;;;4.43;;
62790;SDS011;48830;53.426;10.300;2023-01-31T07:11:19;18.57;;;3.43;;
62790;SDS011;48830;53.426;10.300;2023-01-31T07:13:45;14.97;;;3.97;;
62790;SDS011;48830;53.426;10.300;2023-01-31T07:16:12;21.10;;;3.50;;
62790;SDS011;48830;53.426;10.300;2023-01-31T07:18:38;18.10;;;3.97;;
62790;SDS011;48830;53.426;10.300;2023-01-31T07:21:04;18.37;;;3.57;;
62790;SDS011;48830;53.426;10.300;2023-01-31T07:23:30;20.03;;;3.40;;
62790;SDS011;48830;53.426;10.300;2023-01-31T07:25:55;18.03;;;3.60;;
62790;SDS011;48830;53.426;10.300;2023-01-31T07:28:21;13.13;;;3.43;;
62790;SDS011;48830;53.426;10.300;2023-01-31T07:30:46;12.33;;;3.33;;
62790;SDS011;48830;53.426;10.300;2023-01-31T07:33:12;16.20;;;3.93;;
62790;SDS011;48830;53.426;10.300;2023-01-31T07:35:38;14.37;;;4.03;;
62790;SDS011;48830;53.426;10.300;2023-01-31T07:38:06;18.60;;;4.67;;
62790;SDS011;48830;53.426;10.300;2023-01-31T07:40:31;15.23;;;3.90;;
62790;SDS011;48830;53.426;10.300;2023-01-31T07:42:57;14.23;;;3.83;;
62790;SDS011;48830;53.426;10.300;2023-01-31T07:45:24;19.67;;;3.90;;
62790;SDS011;48830;53.426;10.300;2023-01-31T07:47:50;12.67;;;4.03;;
62790;SDS011;48830;53.426;10.300;2023-01-31T07:50:16;17.27;;;4.40;;
62790;SDS011;48830;53.426;10.300;2023-01-31T07:52:41;15.67;;;4.60;;
62790;SDS011;48830;53.426;10.300;2023-01-31T07:55:07;20.90;;;5.27;;
62790;SDS011;48830;53.426;10.300;2023-01-31T07:57:33;15.33;;;4.43;;
62790;SDS011;48830;53.426;10.300;2023-01-31T07:59:58;20.70;;;4.67;;
62790;SDS011;48830;53.426;10.300;2023-01-31T08:02:25;21.80;;;5.00;;
62790;SDS011;48830;53.426;10.300;2023-01-31T08:05:09;17.30;;;5.63;;
62790;SDS011;48830;53.426;10.300;2023-01-31T08:07:35;21.77;;;5.90;;
62790;SDS011;48830;53.426;10.300;2023-01-31T08:10:01;20.17;;;5.50;;
62790;SDS011;48830;53.426;10.300;2023-01-31T08:12:26;20.03;;;5.80;;
62790;SDS011;48830;53.426;10.300;2023-01-31T08:14:52;21.70;;;6.17;;
62790;SDS011;48830;53.426;10.300;2023-01-31T08:17:17;21.30;;;6.30;;
62790;SDS011;48830;53.426;10.300;2023-01-31T08:19:43;20.20;;;5.90;;
62790;SDS011;48830;53.426;10.300;2023-01-31T08:22:08;21.37;;;6.77;;
62790;SDS011;48830;53.426;10.300;2023-01-31T08:24:34;20.10;;;6.57;;
62790;SDS011;48830;53.426;10.300;2023-01-31T08:27:00;21.57;;;6.40;;
62790;SDS011;48830;53.426;10.300;2023-01-31T08:29:25;21.13;;;5.83;;
62790;SDS011;48830;53.426;10.300;2023-01-31T08:31:51;20.20;;;6.20;;
62790;SDS011;48830;53.426;10.300;2023-01-31T08:34:17;20.87;;;6.53;;
62790;SDS011;48830;53.426;10.300;2023-01-31T08:36:43;19.53;;;5.93;;
62790;SDS011;48830;53.426;10.300;2023-01-31T08:39:09;16.10;;;6.13;;
62790;SDS011;48830;53.426;10.300;2023-01-31T08:41:35;24.73;;;7.23;;
62790;SDS011;48830;53.426;10.300;2023-01-31T08:44:02;19.63;;;5.80;;
62790;SDS011;48830;53.426;10.300;2023-01-31T08:46:29;19.07;;;5.93;;
62790;SDS011;48830;53.426;10.300;2023-01-31T08:48:56;19.63;;;5.93;;
62790;SDS011;48830;53.426;10.300;2023-01-31T08:51:22;22.73;;;6.20;;
62790;SDS011;48830;53.426;10.300;2023-01-31T08:53:48;23.00;;;6.23;;
62790;SDS011;48830;53.426;10.300;2023-01-31T08:56:14;17.40;;;5.73;;
62790;SDS011;48830;53.426;10.300;2023-01-31T08:58:40;18.83;;;6.13;;
62790;SDS011;48830;53.426;10.300;2023-01-31T09:01:11;19.43;;;6.07;;
62790;SDS011;48830;53.426;10.300;2023-01-31T09:03:39;16.97;;;5.57;;
62790;SDS011;48830;53.426;10.300;2023-01-31T09:06:05;17.33;;;5.60;;
62790;SDS011;48830;53.426;10.300;2023-01-31T09:08:34;18.67;;;5.73;;
62790;SDS011;48830;53.426;10.300;2023-01-31T09:10:59;15.40;;;5.43;;
62790;SDS011;48830;53.426;10.300;2023-01-31T09:13:26;21.97;;;6.03;;
62790;SDS011;48830;53.426;10.300;2023-01-31T09:15:59;14.03;;;5.63;;
62790;SDS011;48830;53.426;10.300;2023-01-31T09:18:26;15.90;;;5.10;;
62790;SDS011;48830;53.426;10.300;2023-01-31T09:20:51;12.77;;;5.00;;
62790;SDS011;48830;53.426;10.300;2023-01-31T09:23:17;17.97;;;5.57;;
62790;SDS011;48830;53.426;10.300;2023-01-31T09:25:49;15.13;;;5.20;;
62790;SDS011;48830;53.426;10.300;2023-01-31T09:28:16;18.57;;;6.10;;
62790;SDS011;48830;53.426;10.300;2023-01-31T09:30:41;18.63;;;6.10;;
62790;SDS011;48830;53.426;10.300;2023-01-31T09:33:07;25.13;;;5.87;;
62790;SDS011;48830;53.426;10.300;2023-01-31T09:35:32;15.90;;;5.83;;
62790;SDS011;48830;53.426;10.300;2023-01-31T09:37:57;25.33;;;6.37;;
62790;SDS011;48830;53.426;10.300;2023-01-31T09:40:23;16.90;;;5.70;;
62790;SDS011;48830;53.426;10.300;2023-01-31T09:42:53;16.20;;;5.60;;
62790;SDS011;48830;53.426;10.300;2023-01-31T09:45:26;20.10;;;6.80;;
62790;SDS011;48830;53.426;10.300;2023-01-31T09:47:53;15.97;;;5.80;;
62790;SDS011;48830;53.426;10.300;2023-01-31T09:50:30;22.43;;;7.03;;
62790;SDS011;48830;53.426;10.300;2023-01-31T09:52:57;17.27;;;6.20;;
62790;SDS011;48830;53.426;10.300;2023-01-31T09:55:28;18.80;;;7.30;;
62790;SDS011;48830;53.426;10.300;2023-01-31T10:00:53;17.63;;;8.00;;
62790;SDS011;48830;53.426;10.300;2023-01-31T10:03:47;15.63;;;6.57;;
62790;SDS011;48830;53.426;10.300;2023-01-31T10:06:32;17.10;;;6.50;;
62790;SDS011;48830;53.426;10.300;2023-01-31T10:09:10;14.37;;;6.40;;
62790;SDS011;48830;53.426;10.300;2023-01-31T10:11:38;15.50;;;6.50;;
62790;SDS011;48830;53.426;10.300;2023-01-31T10:19:54;17.30;;;7.23;;
62790;SDS011;48830;53.426;10.300;2023-01-31T10:25:39;17.47;;;7.00;;
62790;SDS011;48830;53.426;10.300;2023-01-31T10:30:48;13.83;;;8.03;;
62790;SDS011;48830;53.426;10.300;2023-01-31T10:36:10;20.00;;;7.47;;
62790;SDS011;48830;53.426;10.300;2023-01-31T10:44:52;20.40;;;8.00;;
62790;SDS011;48830;53.426;10.300;2023-01-31T10:47:00;16.63;;;7.83;;
62790;SDS011;48830;53.426;10.300;2023-01-31T10:49:26;24.50;;;8.57;;
62790;SDS011;48830;53.426;10.300;2023-01-31T10:57:18;17.67;;;9.27;;
62790;SDS011;48830;53.426;10.300;2023-01-31T10:59:45;17.23;;;9.13;;
62790;SDS011;48830;53.426;10.300;2023-01-31T11:02:19;20.20;;;9.33;;
62790;SDS011;48830;53.426;10.300;2023-01-31T11:04:48;18.97;;;9.53;;
62790;SDS011;48830;53.426;10.300;2023-01-31T11:07:16;17.60;;;9.93;;
62790;SDS011;48830;53.426;10.300;2023-01-31T11:09:42;20.30;;;9.87;;
62790;SDS011;48830;53.426;10.300;2023-01-31T11:12:13;21.17;;;10.43;;
62790;SDS011;48830;53.426;10.300;2023-01-31T11:14:38;30.27;;;11.17;;
62790;SDS011;48830;53.426;10.300;2023-01-31T11:17:17;21.20;;;10.50;;
62790;SDS011;48830;53.426;10.300;2023-01-31T11:19:47;20.00;;;10.30;;
62790;SDS011;48830;53.426;10.300;2023-01-31T11:22:22;21.57;;;9.80;;
62790;SDS011;48830;53.426;10.300;2023-01-31T11:24:51;17.17;;;8.90;;
62790;SDS011;48830;53.426;10.300;2023-01-31T11:27:23;19.33;;;9.30;;
62790;SDS011;48830;53.426;10.300;2023-01-31T11:29:51;18.77;;;10.33;;
62790;SDS011;48830;53.426;10.300;2023-01-31T11:32:29;20.00;;;9.83;;
62790;SDS011;48830;53.426;10.300;2023-01-31T11:37:57;18.80;;;9.23;;
62790;SDS011;48830;53.426;10.300;2023-01-31T11:40:26;18.43;;;9.83;;
62790;SDS011;48830;53.426;10.300;2023-01-31T11:43:19;17.83;;;8.57;;
62790;SDS011;48830;53.426;10.300;2023-01-31T11:45:45;17.10;;;9.40;;
62790;SDS011;48830;53.426;10.300;2023-01-31T11:48:22;15.70;;;9.27;;
62790;SDS011;48830;53.426;10.300;2023-01-31T11:50:54;14.27;;;8.63;;
62790;SDS011;48830;53.426;10.300;2023-01-31T11:53:23;15.13;;;8.70;;
62790;SDS011;48830;53.426;10.300;2023-01-31T11:55:52;16.23;;;8.70;;
62790;SDS011;48830;53.426;10.300;2023-01-31T11:58:33;14.80;;;7.80;;
62790;SDS011;48830;53.426;10.300;2023-01-31T12:01:07;15.83;;;8.53;;
62790;SDS011;48830;53.426;10.300;2023-01-31T12:03:39;15.17;;;8.80;;
62790;SDS011;48830;53.426;10.300;2023-01-31T12:06:11;13.63;;;8.13;;
62790;SDS011;48830;53.426;10.300;2023-01-31T12:08:55;13.37;;;7.73;;
62790;SDS011;48830;53.426;10.300;2023-01-31T12:11:30;14.80;;;7.87;;
62790;SDS011;48830;53.426;10.300;2023-01-31T12:16:40;13.93;;;7.23;;
62790;SDS011;48830;53.426;10.300;2023-01-31T12:27:25;12.97;;;6.07;;
62790;SDS011;48830;53.426;10.300;2023-01-31T12:32:30;10.40;;;6.20;;
62790;SDS011;48830;53.426;10.300;2023-01-31T12:52:19;7.30;;;4.30;;
62790;SDS011;48830;53.426;10.300;2023-01-31T12:57:32;8.90;;;4.20;;
62790;SDS011;48830;53.426;10.300;2023-01-31T13:05:47;5.90;;;3.13;;
62790;SDS011;48830;53.426;10.300;2023-01-31T13:08:20;7.53;;;3.33;;
62790;SDS011;48830;53.426;10.300;2023-01-31T13:13:52;6.67;;;3.70;;
62790;SDS011;48830;53.426;10.300;2023-01-31T13:16:28;6.40;;;2.87;;
62790;SDS011;48830;53.426;10.300;2023-01-31T13:19:01;9.37;;;3.97;;
62790;SDS011;48830;53.426;10.300;2023-01-31T13:21:30;7.20;;;2.83;;
62790;SDS011;48830;53.426;10.300;2023-01-31T13:26:37;5.03;;;2.53;;
62790;SDS011;48830;53.426;10.300;2023-01-31T13:34:39;5.90;;;2.20;;
62790;SDS011;48830;53.426;10.300;2023-01-31T13:37:10;4.27;;;1.90;;
62790;SDS011;48830;53.426;10.300;2023-01-31T13:39:40;3.33;;;1.70;;
62790;SDS011;48830;53.426;10.300;2023-01-31T13:42:13;4.03;;;2.23;;
62790;SDS011;48830;53.426;10.300;2023-01-31T13:44:40;6.23;;;1.80;;
62790;SDS011;48830;53.426;10.300;2023-01-31T13:47:18;4.27;;;1.87;;
62790;SDS011;48830;53.426;10.300;2023-01-31T13:49:49;4.00;;;1.60;;
62790;SDS011;48830;53.426;10.300;2023-01-31T13:52:26;4.50;;;2.00;;
62790;SDS011;48830;53.426;10.300;2023-01-31T13:55:00;6.80;;;1.97;;
62790;SDS011;48830;53.426;10.300;2023-01-31T13:58:33;4.10;;;1.70;;
62790;SDS011;48830;53.426;10.300;2023-01-31T14:00:47;4.93;;;1.90;;
62790;SDS011;48830;53.426;10.300;2023-01-31T14:03:18;4.40;;;1.70;;
62790;SDS011;48830;53.426;10.300;2023-01-31T14:05:52;4.73;;;2.03;;
62790;SDS011;48830;53.426;10.300;2023-01-31T14:13:45;6.23;;;2.10;;
62790;SDS011;48830;53.426;10.300;2023-01-31T14:20:00;4.10;;;2.03;;
62790;SDS011;48830;53.426;10.300;2023-01-31T14:32:32;5.77;;;1.93;;
62790;SDS011;48830;53.426;10.300;2023-01-31T14:37:44;4.33;;;2.03;;
62790;SDS011;48830;53.426;10.300;2023-01-31T14:49:18;4.37;;;1.70;;
62790;SDS011;48830;53.426;10.300;2023-01-31T14:54:56;5.13;;;2.20;;
62790;SDS011;48830;53.426;10.300;2023-01-31T14:57:43;3.87;;;1.83;;
62790;SDS011;48830;53.426;10.300;2023-01-31T15:03:07;5.63;;;2.20;;
62790;SDS011;48830;53.426;10.300;2023-01-31T15:05:41;6.60;;;2.10;;
62790;SDS011;48830;53.426;10.300;2023-01-31T15:13:37;6.67;;;2.40;;
62790;SDS011;48830;53.426;10.300;2023-01-31T15:16:37;6.17;;;2.20;;
62790;SDS011;48830;53.426;10.300;2023-01-31T15:18:58;5.87;;;1.90;;
62790;SDS011;48830;53.426;10.300;2023-01-31T15:21:49;6.83;;;2.20;;
62790;SDS011;48830;53.426;10.300;2023-01-31T15:27:03;7.27;;;2.50;;
62790;SDS011;48830;53.426;10.300;2023-01-31T15:32:16;11.43;;;3.27;;
62790;SDS011;48830;53.426;10.300;2023-01-31T15:35:11;7.20;;;2.57;;
62790;SDS011;48830;53.426;10.300;2023-01-31T15:37:36;12.83;;;3.13;;
62790;SDS011;48830;53.426;10.300;2023-01-31T15:40:04;10.93;;;2.90;;
62790;SDS011;48830;53.426;10.300;2023-01-31T15:42:40;15.37;;;3.37;;
62790;SDS011;48830;53.426;10.300;2023-01-31T15:45:21;13.37;;;3.03;;
62790;SDS011;48830;53.426;10.300;2023-01-31T15:47:55;11.77;;;2.97;;
62790;SDS011;48830;53.426;10.300;2023-01-31T15:50:21;16.67;;;3.60;;
62790;SDS011;48830;53.426;10.300;2023-01-31T15:52:46;12.73;;;3.23;;
62790;SDS011;48830;53.426;10.300;2023-01-31T15:55:13;14.53;;;3.27;;
62790;SDS011;48830;53.426;10.300;2023-01-31T15:57:48;19.47;;;3.67;;
62790;SDS011;48830;53.426;10.300;2023-01-31T16:00:20;11.60;;;2.77;;
62790;SDS011;48830;53.426;10.300;2023-01-31T16:02:49;17.40;;;3.23;;
62790;SDS011;48830;53.426;10.300;2023-01-31T16:05:24;19.10;;;3.50;;
62790;SDS011;48830;53.426;10.300;2023-01-31T16:07:52;18.37;;;4.07;;
62790;SDS011;48830;53.426;10.300;2023-01-31T16:10:17;16.03;;;3.10;;
62790;SDS011;48830;53.426;10.300;2023-01-31T16:12:45;13.43;;;4.00;;
62790;SDS011;48830;53.426;10.300;2023-01-31T16:15:16;10.87;;;3.57;;
62790;SDS011;48830;53.426;10.300;2023-01-31T16:17:46;12.77;;;3.40;;
62790;SDS011;48830;53.426;10.300;2023-01-31T16:23:00;17.87;;;3.93;;
62790;SDS011;48830;53.426;10.300;2023-01-31T16:25:26;22.33;;;3.70;;
62790;SDS011;48830;53.426;10.300;2023-01-31T16:27:52;14.57;;;3.10;;
62790;SDS011;48830;53.426;10.300;2023-01-31T16:30:19;12.30;;;3.27;;
62790;SDS011;48830;53.426;10.300;2023-01-31T16:32:45;16.33;;;3.43;;
62790;SDS011;48830;53.426;10.300;2023-01-31T16:35:22;14.87;;;3.77;;
62790;SDS011;48830;53.426;10.300;2023-01-31T16:40:50;8.20;;;2.17;;
62790;SDS011;48830;53.426;10.300;2023-01-31T16:43:26;9.63;;;2.03;;
62790;SDS011;48830;53.426;10.300;2023-01-31T16:48:31;11.23;;;2.37;;
62790;SDS011;48830;53.426;10.300;2023-01-31T16:50:59;8.70;;;2.20;;
62790;SDS011;48830;53.426;10.300;2023-01-31T16:53:44;7.10;;;2.00;;
62790;SDS011;48830;53.426;10.300;2023-01-31T16:58:59;10.63;;;2.40;;
62790;SDS011;48830;53.426;10.300;2023-01-31T17:06:43;11.37;;;2.63;;
62790;SDS011;48830;53.426;10.300;2023-01-31T17:09:13;9.43;;;3.13;;
62790;SDS011;48830;53.426;10.300;2023-01-31T17:11:42;13.10;;;3.57;;
62790;SDS011;48830;53.426;10.300;2023-01-31T17:14:11;13.23;;;2.73;;
62790;SDS011;48830;53.426;10.300;2023-01-31T17:16:36;20.67;;;3.73;;
62790;SDS011;48830;53.426;10.300;2023-01-31T17:19:02;14.33;;;3.60;;
62790;SDS011;48830;53.426;10.300;2023-01-31T17:21:36;16.37;;;3.83;;
62790;SDS011;48830;53.426;10.300;2023-01-31T17:24:04;16.07;;;3.37;;
62790;SDS011;48830;53.426;10.300;2023-01-31T17:26:30;19.30;;;3.43;;
62790;SDS011;48830;53.426;10.300;2023-01-31T17:28:55;14.07;;;3.57;;
62790;SDS011;48830;53.426;10.300;2023-01-31T17:31:21;16.33;;;3.33;;
62790;SDS011;48830;53.426;10.300;2023-01-31T17:33:49;14.87;;;3.53;;
62790;SDS011;48830;53.426;10.300;2023-01-31T17:36:15;14.97;;;3.17;;
62790;SDS011;48830;53.426;10.300;2023-01-31T17:38:41;14.77;;;3.17;;
62790;SDS011;48830;53.426;10.300;2023-01-31T17:41:11;22.07;;;4.87;;
62790;SDS011;48830;53.426;10.300;2023-01-31T17:43:39;19.70;;;5.20;;
62790;SDS011;48830;53.426;10.300;2023-01-31T17:46:05;19.50;;;3.77;;
62790;SDS011;48830;53.426;10.300;2023-01-31T17:48:30;13.87;;;3.23;;
62790;SDS011;48830;53.426;10.300;2023-01-31T17:50:56;20.13;;;4.13;;
62790;SDS011;48830;53.426;10.300;2023-01-31T17:53:21;17.53;;;3.50;;